Time;durP1;ratioP1;P1;durP2;ratioP2;P2;SDS_P1;SDS_P2;PMS_P1;PMS_P2;Temp;Humidity;BMP_temperature;BMP_pressure;BME280_temperature;BME280_humidity;BME280_pressure;Samples;Min_cycle;Max_cycle;Signal;HPM_P1;HPM_P2
2023/11/09 02:42:34;;;;;;;4.70;3.70;;;3.20;81.00;;;;;;4978382;28;20173;-65
2023/11/09 02:44:59;;;;;;;9.32;4.18;;;3.20;80.70;;;;;;4978780;28;20038;-65
2023/11/09 02:47:25;;;;;;;6.32;4.40;;;3.20;81.10;;;;;;4980265;28;20042;-65
2023/11/09 02:49:50;;;;;;;7.47;3.97;;;3.20;81.30;;;;;;4979575;28;20030;-64
2023/11/09 02:52:16;;;;;;;6.40;4.03;;;3.20;81.30;;;;;;4979832;28;21093;-65
2023/11/09 02:54:41;;;;;;;6.07;3.95;;;3.20;81.10;;;;;;4980065;28;20081;-65
2023/11/09 02:57:07;;;;;;;6.18;4.13;;;3.20;81.00;;;;;;4979600;28;20034;-65
2023/11/09 02:59:33;;;;;;;4.65;3.58;;;3.20;81.00;;;;;;4980011;28;20092;-65
2023/11/09 03:02:00;;;;;;;5.95;4.30;;;3.20;80.90;;;;;;4979744;28;20514;-65
2023/11/09 03:04:26;;;;;;;5.32;3.47;;;3.20;80.90;;;;;;4980750;28;20458;-65
2023/11/09 03:06:52;;;;;;;5.18;3.90;;;3.20;81.10;;;;;;4979125;28;20062;-66
2023/11/09 03:09:18;;;;;;;7.13;3.97;;;3.20;81.30;;;;;;4980126;28;20065;-65
2023/11/09 03:11:44;;;;;;;6.22;3.63;;;3.20;81.40;;;;;;4979372;28;20046;-65
2023/11/09 03:14:10;;;;;;;5.40;3.70;;;3.20;81.50;;;;;;4980320;28;20046;-66
2023/11/09 03:16:36;;;;;;;5.97;4.13;;;3.20;81.60;;;;;;4979327;28;20558;-65
2023/11/09 03:19:02;;;;;;;6.30;3.97;;;3.30;81.70;;;;;;4980358;28;20031;-65
2023/11/09 03:21:28;;;;;;;5.82;3.75;;;3.30;81.80;;;;;;4979914;28;20460;-66
2023/11/09 03:23:54;;;;;;;5.10;3.55;;;3.30;81.80;;;;;;4979965;28;20038;-65
2023/11/09 03:26:19;;;;;;;6.32;4.00;;;3.40;81.80;;;;;;4979578;28;20449;-65
2023/11/09 03:28:45;;;;;;;5.90;3.78;;;3.30;81.60;;;;;;4978139;28;20042;-65
2023/11/09 03:31:13;;;;;;;7.30;4.85;;;3.40;81.60;;;;;;4980623;28;20144;-65
2023/11/09 03:33:39;;;;;;;7.80;5.05;;;3.40;81.60;;;;;;4977865;28;20063;-65
2023/11/09 03:36:05;;;;;;;8.18;4.85;;;3.40;81.40;;;;;;4977489;28;20046;-66
2023/11/09 03:38:30;;;;;;;7.90;4.50;;;3.40;81.40;;;;;;4977331;28;20430;-65
2023/11/09 03:40:56;;;;;;;6.95;4.63;;;3.40;81.40;;;;;;4978222;28;20038;-66
2023/11/09 03:43:22;;;;;;;5.75;4.00;;;3.40;81.50;;;;;;4977806;28;20065;-65
2023/11/09 03:45:47;;;;;;;7.05;4.32;;;3.40;82.60;;;;;;4977187;28;20521;-66
2023/11/09 03:48:14;;;;;;;6.32;4.30;;;3.30;81.80;;;;;;4977209;28;20035;-66
2023/11/09 03:50:41;;;;;;;8.13;4.78;;;3.40;82.00;;;;;;4977870;28;20541;-66
2023/11/09 03:53:07;;;;;;;7.55;4.18;;;3.30;82.00;;;;;;4978041;28;20050;-66
2023/11/09 03:55:33;;;;;;;5.45;3.72;;;3.40;82.10;;;;;;4977266;28;20027;-65
2023/11/09 03:57:58;;;;;;;7.50;4.50;;;3.30;82.10;;;;;;4977635;28;20085;-65
2023/11/09 04:00:24;;;;;;;7.10;4.50;;;3.40;82.10;;;;;;4977722;28;20088;-64
2023/11/09 04:02:49;;;;;;;10.05;4.28;;;3.40;82.10;;;;;;4976807;28;20041;-66
2023/11/09 04:05:16;;;;;;;6.47;4.30;;;3.40;81.80;;;;;;4976795;28;20082;-66
2023/11/09 04:07:45;;;;;;;7.35;4.13;;;3.40;81.80;;;;;;4977987;28;20027;-66
2023/11/09 04:10:16;;;;;;;9.10;4.72;;;3.30;81.80;;;;;;4977937;28;20073;-65
2023/11/09 04:12:43;;;;;;;7.95;4.38;;;3.30;81.60;;;;;;4979081;28;20111;-65
2023/11/09 04:15:09;;;;;;;7.35;4.35;;;3.30;81.60;;;;;;4978537;28;20503;-66
2023/11/09 04:17:35;;;;;;;10.73;4.50;;;3.30;81.60;;;;;;4977826;28;20039;-66
2023/11/09 04:20:01;;;;;;;5.88;4.28;;;3.30;81.80;;;;;;4977293;28;20438;-65
2023/11/09 04:22:27;;;;;;;13.50;4.40;;;3.30;81.70;;;;;;4977355;28;20031;-64
2023/11/09 04:24:53;;;;;;;4.95;4.22;;;3.20;81.60;;;;;;4977635;28;20054;-65
2023/11/09 04:27:18;;;;;;;5.88;4.05;;;3.20;81.60;;;;;;4977580;28;20031;-66
2023/11/09 04:29:44;;;;;;;5.40;3.83;;;3.20;81.60;;;;;;4978379;28;20039;-66
2023/11/09 04:32:10;;;;;;;7.47;3.80;;;3.20;81.60;;;;;;4981350;28;20022;-66
2023/11/09 04:34:36;;;;;;;6.82;4.07;;;3.20;81.70;;;;;;4980077;28;20435;-66
2023/11/09 04:37:02;;;;;;;5.20;3.75;;;3.20;81.70;;;;;;4980403;28;20134;-65
2023/11/09 04:39:28;;;;;;;7.00;3.55;;;3.20;81.70;;;;;;4981033;28;20038;-65
2023/11/09 04:41:58;;;;;;;7.57;3.72;;;3.10;81.60;;;;;;4982803;28;20034;-65
2023/11/09 04:44:24;;;;;;;7.07;3.50;;;3.10;81.70;;;;;;4980554;28;20038;-65
2023/11/09 04:46:52;;;;;;;6.45;3.80;;;3.10;81.60;;;;;;4979638;28;20035;-65
2023/11/09 04:49:20;;;;;;;5.40;3.78;;;3.10;81.80;;;;;;4982102;28;20046;-65
2023/11/09 04:51:48;;;;;;;4.53;3.35;;;3.10;81.70;;;;;;4980318;28;20394;-64
2023/11/09 04:54:17;;;;;;;4.43;3.15;;;3.10;81.60;;;;;;4980824;28;20516;-64
2023/11/09 04:56:53;;;;;;;6.70;3.63;;;3.10;81.60;;;;;;4979071;28;20114;-65
2023/11/09 05:07:27;;;;;;;4.35;3.75;;;3.10;81.60;;;;;;4980990;28;20050;-65
2023/11/09 05:09:54;;;;;;;7.40;4.13;;;3.10;81.70;;;;;;4980408;28;20034;-65
2023/11/09 05:12:19;;;;;;;5.82;3.50;;;3.10;81.90;;;;;;4981054;28;20030;-65
2023/11/09 05:14:46;;;;;;;6.20;3.70;;;3.10;82.00;;;;;;4979482;28;20509;-65
2023/11/09 05:17:15;;;;;;;4.50;3.60;;;3.10;81.90;;;;;;4979850;28;20031;-65
2023/11/09 05:19:44;;;;;;;6.60;3.83;;;3.20;81.80;;;;;;4979838;28;20035;-65
2023/11/09 05:22:10;;;;;;;5.68;3.95;;;3.20;81.70;;;;;;4979691;28;20085;-65
2023/11/09 05:24:40;;;;;;;5.10;3.95;;;3.20;81.70;;;;;;4979482;28;20034;-64
2023/11/09 05:27:07;;;;;;;9.63;4.47;;;3.20;81.70;;;;;;4979403;28;20546;-65
2023/11/09 05:29:36;;;;;;;4.85;4.30;;;3.20;81.60;;;;;;4979379;28;20046;-64
2023/11/09 05:32:06;;;;;;;7.72;4.85;;;3.20;81.70;;;;;;4980019;28;20026;-65
2023/11/09 05:34:37;;;;;;;7.43;4.85;;;3.20;81.70;;;;;;4979393;28;20069;-65
2023/11/09 05:37:04;;;;;;;9.60;6.28;;;3.10;81.60;;;;;;4979587;28;20038;-65
2023/11/09 05:39:30;;;;;;;9.65;6.43;;;3.10;81.60;;;;;;4979176;28;20490;-64
2023/11/09 05:41:56;;;;;;;8.65;5.70;;;3.10;81.90;;;;;;4978607;28;20054;-65
2023/11/09 05:44:22;;;;;;;11.40;5.60;;;3.10;82.00;;;;;;4979839;28;20035;-65
2023/11/09 05:46:48;;;;;;;7.30;4.90;;;3.10;82.00;;;;;;4978046;28;20038;-65
2023/11/09 05:49:13;;;;;;;7.55;4.97;;;3.10;82.10;;;;;;4980334;28;20034;-65
2023/11/09 05:51:39;;;;;;;8.80;5.32;;;3.10;82.30;;;;;;4979434;28;20038;-64
2023/11/09 05:54:06;;;;;;;7.50;5.13;;;3.20;82.20;;;;;;4979446;28;20121;-65
2023/11/09 05:56:32;;;;;;;10.52;5.43;;;3.20;82.20;;;;;;4978163;28;20467;-64
2023/11/09 05:58:58;;;;;;;8.18;5.85;;;3.10;82.10;;;;;;4978787;28;20128;-65
2023/11/09 06:01:24;;;;;;;15.00;6.40;;;3.20;82.20;;;;;;4978423;28;20125;-65
2023/11/09 06:03:50;;;;;;;8.88;5.78;;;3.10;82.10;;;;;;4978391;28;20037;-65
2023/11/09 06:06:16;;;;;;;9.93;5.68;;;3.10;82.10;;;;;;4978794;28;20039;-65
2023/11/09 06:08:43;;;;;;;11.35;6.38;;;3.10;82.30;;;;;;4977916;28;20113;-65
2023/11/09 06:11:13;;;;;;;12.18;7.10;;;3.10;82.20;;;;;;4977665;28;20332;-65
2023/11/09 06:13:39;;;;;;;12.63;7.95;;;3.10;82.30;;;;;;4979374;28;20468;-65
2023/11/09 06:16:05;;;;;;;13.50;8.50;;;3.10;82.50;;;;;;4978259;28;20030;-65
2023/11/09 06:18:32;;;;;;;15.32;8.10;;;3.00;82.50;;;;;;4978516;28;20438;-65
2023/11/09 06:21:00;;;;;;;10.48;7.85;;;3.10;82.60;;;;;;4978584;28;20038;-65
2023/11/09 06:23:28;;;;;;;15.30;8.32;;;3.10;82.50;;;;;;4979086;28;20105;-65
2023/11/09 06:25:55;;;;;;;15.70;8.70;;;3.10;82.30;;;;;;4978135;28;20035;-64
2023/11/09 06:28:22;;;;;;;13.73;8.68;;;3.10;82.30;;;;;;4978552;28;20031;-65
2023/11/09 06:30:47;;;;;;;13.32;8.35;;;3.00;82.30;;;;;;4978610;28;20433;-65
2023/11/09 06:33:13;;;;;;;12.43;8.02;;;3.00;82.40;;;;;;4978336;28;20035;-65
2023/11/09 06:35:40;;;;;;;15.18;8.60;;;3.00;82.50;;;;;;4978403;28;20034;-65
2023/11/09 06:38:08;;;;;;;12.23;8.13;;;3.00;82.60;;;;;;4978068;28;20046;-65
2023/11/09 06:40:37;;;;;;;16.50;7.85;;;3.00;82.80;;;;;;4977537;28;20066;-66
2023/11/09 06:43:03;;;;;;;11.85;7.38;;;3.10;82.80;;;;;;4977744;28;20191;-64
2023/11/09 06:45:28;;;;;;;9.52;6.63;;;3.10;83.00;;;;;;4977473;28;20038;-65
2023/11/09 06:47:54;;;;;;;13.32;7.93;;;3.10;83.00;;;;;;4977941;28;20041;-65
2023/11/09 06:50:19;;;;;;;13.85;8.57;;;3.10;83.10;;;;;;4977416;28;20359;-65
2023/11/09 06:52:46;;;;;;;18.45;10.20;;;3.20;83.30;;;;;;4976784;28;20091;-65
2023/11/09 06:55:16;;;;;;;23.50;11.27;;;3.20;83.60;;;;;;4977759;28;20125;-65
2023/11/09 06:57:43;;;;;;;18.50;10.70;;;3.20;83.50;;;;;;4978781;28;20038;-65
2023/11/09 07:00:11;;;;;;;21.77;12.25;;;3.20;83.70;;;;;;4978627;28;20041;-64
2023/11/09 07:02:40;;;;;;;29.38;12.95;;;3.30;83.70;;;;;;4977797;28;20041;-64
2023/11/09 07:05:06;;;;;;;24.67;12.00;;;3.30;83.70;;;;;;4978829;28;20107;-65
2023/11/09 07:07:33;;;;;;;21.92;11.10;;;3.30;83.70;;;;;;4978092;28;20421;-64
2023/11/09 07:09:58;;;;;;;18.15;10.07;;;3.40;83.80;;;;;;4977839;28;20061;-65
2023/11/09 07:12:25;;;;;;;24.27;9.93;;;3.40;83.80;;;;;;4976442;28;20526;-65
2023/11/09 07:14:51;;;;;;;25.02;9.52;;;3.50;83.90;;;;;;4977558;28;20034;-65
2023/11/09 07:17:17;;;;;;;19.15;8.52;;;3.40;84.00;;;;;;4977856;28;20537;-65
2023/11/09 07:19:47;;;;;;;23.48;8.43;;;3.50;84.30;;;;;;4977446;28;20412;-65
2023/11/09 07:22:14;;;;;;;18.08;8.13;;;3.50;84.40;;;;;;4978361;28;20642;-64
2023/11/09 07:24:41;;;;;;;17.38;8.55;;;3.50;84.60;;;;;;4977194;28;20046;-65
2023/11/09 07:27:09;;;;;;;17.85;7.88;;;3.50;84.80;;;;;;4977945;28;20039;-65
2023/11/09 07:29:39;;;;;;;14.80;7.72;;;3.60;85.00;;;;;;4977993;28;20034;-65
2023/11/09 07:32:05;;;;;;;16.33;7.80;;;3.60;85.10;;;;;;4978526;28;20502;-65
2023/11/09 07:34:31;;;;;;;18.33;8.05;;;3.60;85.20;;;;;;4976884;28;20491;-65
2023/11/09 07:36:58;;;;;;;17.92;8.35;;;3.70;85.40;;;;;;4977333;28;20042;-65
2023/11/09 07:39:27;;;;;;;13.55;8.07;;;3.70;85.40;;;;;;4977593;28;20045;-65
2023/11/09 07:42:05;;;;;;;17.42;9.80;;;3.80;85.50;;;;;;4978048;28;20043;-64
2023/11/09 07:44:31;;;;;;;18.35;9.40;;;3.80;86.00;;;;;;4977242;28;20042;-64
2023/11/09 07:47:00;;;;;;;19.02;9.98;;;3.80;85.60;;;;;;4976815;28;20418;-64
2023/11/09 07:49:30;;;;;;;19.67;10.63;;;3.80;85.70;;;;;;4978386;28;20030;-65
2023/11/09 07:51:59;;;;;;;30.38;11.73;;;3.90;85.90;;;;;;4977246;28;20050;-65
2023/11/09 07:54:29;;;;;;;25.92;12.50;;;3.90;85.80;;;;;;4977189;28;20074;-65
2023/11/09 07:56:59;;;;;;;26.73;11.65;;;4.00;86.10;;;;;;4976870;28;20039;-64
2023/11/09 07:59:26;;;;;;;22.13;11.48;;;4.10;86.00;;;;;;4977440;28;20117;-64
2023/11/09 08:01:52;;;;;;;25.70;13.10;;;4.10;86.10;;;;;;4976810;28;20038;-64
2023/11/09 08:04:18;;;;;;;22.05;12.45;;;4.20;86.20;;;;;;4977297;28;20529;-64
2023/11/09 08:06:45;;;;;;;23.85;11.63;;;4.30;86.30;;;;;;4980080;28;20045;-64
2023/11/09 08:09:15;;;;;;;20.52;11.80;;;4.20;86.30;;;;;;4981247;28;20038;-64
2023/11/09 08:11:42;;;;;;;20.05;9.27;;;4.50;86.50;;;;;;4982186;28;20031;-64
2023/11/09 08:14:08;;;;;;;26.08;9.27;;;4.50;86.70;;;;;;4982001;28;20043;-64
2023/11/09 08:16:35;;;;;;;20.83;9.25;;;4.70;87.00;;;;;;4980660;28;20451;-64
2023/11/09 08:19:03;;;;;;;23.40;9.20;;;4.80;87.10;;;;;;4981511;28;20045;-64
2023/11/09 08:21:34;;;;;;;24.65;9.75;;;4.90;87.10;;;;;;4981279;28;20045;-64
2023/11/09 08:24:01;;;;;;;28.20;10.60;;;5.00;87.10;;;;;;4981102;28;20034;-64
2023/11/09 08:26:27;;;;;;;17.67;8.50;;;5.20;87.90;;;;;;4980293;28;20041;-64
2023/11/09 08:28:53;;;;;;;21.58;7.18;;;5.30;87.00;;;;;;4980604;28;20034;-64
2023/11/09 08:31:19;;;;;;;17.75;6.22;;;5.40;87.10;;;;;;4981398;28;20437;-64
2023/11/09 08:33:45;;;;;;;17.15;5.72;;;5.50;87.20;;;;;;4979830;28;20030;-64
2023/11/09 08:36:11;;;;;;;8.82;4.60;;;5.60;87.40;;;;;;4980780;28;20030;-64
2023/11/09 08:38:39;;;;;;;7.32;3.55;;;5.70;87.40;;;;;;4980468;28;20038;-64
2023/11/09 08:41:05;;;;;;;4.55;2.88;;;5.90;87.30;;;;;;4980608;28;20038;-64
2023/11/09 08:43:35;;;;;;;3.80;2.75;;;6.00;87.10;;;;;;4980724;28;20290;-64
2023/11/09 08:46:02;;;;;;;3.78;2.88;;;6.20;86.90;;;;;;4980013;28;20026;-64
2023/11/09 08:48:31;;;;;;;3.33;2.53;;;6.40;86.70;;;;;;4980133;28;20044;-64
2023/11/09 08:51:00;;;;;;;2.42;2.00;;;6.60;86.40;;;;;;4980405;28;21762;-64
2023/11/09 08:53:31;;;;;;;2.47;1.70;;;6.80;86.00;;;;;;4980391;28;20591;-64
2023/11/09 08:56:00;;;;;;;2.22;1.30;;;6.90;85.40;;;;;;4980112;28;20047;-64
2023/11/09 08:58:26;;;;;;;2.00;1.77;;;7.10;84.90;;;;;;4980129;28;20031;-64
2023/11/09 09:00:53;;;;;;;2.47;1.60;;;7.30;84.30;;;;;;4979526;28;20030;-64
2023/11/09 09:03:19;;;;;;;2.22;1.40;;;7.50;83.60;;;;;;4980211;28;20047;-65
2023/11/09 09:05:44;;;;;;;2.90;1.58;;;7.70;83.40;;;;;;4982066;28;20039;-64
2023/11/09 09:08:10;;;;;;;2.10;1.52;;;7.80;82.90;;;;;;4982009;28;20031;-64
2023/11/09 09:10:37;;;;;;;3.88;1.40;;;7.90;82.30;;;;;;4978677;28;20035;-64
2023/11/09 09:13:03;;;;;;;2.50;1.38;;;8.10;81.90;;;;;;4981889;28;20457;-64
2023/11/09 09:15:29;;;;;;;1.40;1.30;;;8.30;81.20;;;;;;4980632;28;20106;-64
2023/11/09 09:17:55;;;;;;;1.83;1.50;;;8.40;80.30;;;;;;4982159;28;20110;-64
2023/11/09 09:20:22;;;;;;;2.25;1.35;;;8.50;80.30;;;;;;4981087;28;20039;-64
2023/11/09 09:22:49;;;;;;;1.25;1.08;;;8.60;80.00;;;;;;4980698;28;20077;-64
2023/11/09 09:25:16;;;;;;;2.92;1.42;;;8.70;79.60;;;;;;4981552;28;20043;-64
2023/11/09 09:27:46;;;;;;;1.70;1.25;;;8.90;79.30;;;;;;4981329;28;20034;-63
2023/11/09 09:30:21;;;;;;;2.17;1.50;;;9.00;78.40;;;;;;4982303;28;20035;-64
2023/11/09 09:32:51;;;;;;;1.33;1.10;;;9.10;78.70;;;;;;4981054;28;20121;-65
2023/11/09 09:35:20;;;;;;;0.88;0.80;;;9.20;78.00;;;;;;4981174;28;20050;-64
2023/11/09 09:37:47;;;;;;;3.47;1.27;;;9.30;78.40;;;;;;4981926;28;20030;-64
2023/11/09 09:40:17;;;;;;;2.33;1.05;;;9.40;77.90;;;;;;4980969;28;20093;-64
2023/11/09 09:42:46;;;;;;;3.45;1.15;;;9.50;77.60;;;;;;4980415;28;20449;-64
2023/11/09 09:45:15;;;;;;;3.08;1.45;;;9.50;77.20;;;;;;4981330;28;20026;-65
2023/11/09 09:47:52;;;;;;;1.50;1.20;;;9.70;77.00;;;;;;4981575;28;20197;-64
2023/11/09 09:50:22;;;;;;;2.05;1.40;;;9.70;76.90;;;;;;4981659;28;20103;-64
2023/11/09 09:52:50;;;;;;;1.58;1.05;;;9.90;77.00;;;;;;4979742;28;20062;-65
2023/11/09 09:55:19;;;;;;;2.28;1.20;;;9.90;76.70;;;;;;4981762;28;20035;-65
2023/11/09 09:57:45;;;;;;;1.15;1.00;;;10.00;76.50;;;;;;4980533;28;20027;-64
2023/11/09 10:00:26;;;;;;;1.30;1.20;;;10.30;76.00;;;;;;4981246;28;20054;-64
2023/11/09 10:02:55;;;;;;;2.50;1.70;;;10.20;75.60;;;;;;4980007;28;20031;-64
2023/11/09 10:05:26;;;;;;;5.68;3.00;;;10.30;75.60;;;;;;4979868;28;20041;-64
2023/11/09 10:08:04;;;;;;;2.72;1.90;;;10.40;75.30;;;;;;4980292;28;20037;-65
2023/11/09 10:10:41;;;;;;;2.10;1.20;;;10.40;74.80;;;;;;4980784;28;20037;-65
2023/11/09 10:13:13;;;;;;;1.27;0.95;;;10.50;74.10;;;;;;4981466;28;20532;-65
2023/11/09 10:15:40;;;;;;;1.58;0.90;;;10.60;74.70;;;;;;4980119;28;20506;-64
2023/11/09 10:18:07;;;;;;;5.10;1.00;;;10.70;74.20;;;;;;4980902;28;20034;-64
2023/11/09 10:20:32;;;;;;;1.13;0.80;;;10.70;74.20;;;;;;4980314;28;20073;-64
2023/11/09 10:23:03;;;;;;;1.45;0.80;;;10.80;73.20;;;;;;4980729;28;20058;-65
2023/11/09 10:25:30;;;;;;;8.30;1.30;;;10.80;73.50;;;;;;4980768;28;20121;-64
2023/11/09 10:28:00;;;;;;;6.85;1.50;;;10.90;73.50;;;;;;4979907;28;20143;-64
2023/11/09 10:30:44;;;;;;;2.42;0.90;;;10.90;73.50;;;;;;4980232;28;20027;-64
2023/11/09 10:33:18;;;;;;;1.40;0.90;;;11.00;72.50;;;;;;4980375;28;20085;-64
2023/11/09 10:35:47;;;;;;;1.40;0.90;;;11.00;73.00;;;;;;4979554;28;20348;-64
2023/11/09 10:38:20;;;;;;;1.58;0.60;;;11.10;73.10;;;;;;4980833;28;20027;-65
2023/11/09 10:40:47;;;;;;;1.25;0.90;;;11.10;73.20;;;;;;4979539;28;20077;-64
2023/11/09 10:43:14;;;;;;;3.15;0.90;;;11.10;72.90;;;;;;4980069;28;20031;-64
2023/11/09 10:45:44;;;;;;;1.23;0.85;;;11.20;72.80;;;;;;4980497;28;20097;-64
2023/11/09 10:48:11;;;;;;;1.85;0.65;;;11.20;72.80;;;;;;4980255;28;20565;-65
2023/11/09 10:50:49;;;;;;;1.17;0.90;;;11.20;72.90;;;;;;4979650;28;20430;-65
2023/11/09 10:53:20;;;;;;;1.98;0.80;;;11.20;72.80;;;;;;4980578;28;20035;-65
2023/11/09 10:55:53;;;;;;;1.25;0.80;;;11.20;72.60;;;;;;4979784;28;20039;-65
2023/11/09 10:58:20;;;;;;;1.02;0.90;;;11.30;72.60;;;;;;4980555;28;20130;-65
2023/11/09 11:01:06;;;;;;;0.98;0.80;;;11.30;72.50;;;;;;4978528;28;20039;-64
2023/11/09 11:03:38;;;;;;;2.20;0.82;;;11.30;72.50;;;;;;4980488;28;20283;-65
2023/11/09 11:06:09;;;;;;;1.60;0.95;;;11.30;72.40;;;;;;4980517;28;20047;-65
2023/11/09 11:08:41;;;;;;;0.80;0.80;;;11.30;72.50;;;;;;4979031;28;20039;-65
2023/11/09 11:11:13;;;;;;;1.25;0.82;;;11.30;72.70;;;;;;4978561;28;20034;-65
2023/11/09 11:13:43;;;;;;;1.27;0.80;;;11.30;72.80;;;;;;4979571;28;20146;-64
2023/11/09 11:16:38;;;;;;;1.05;0.55;;;11.40;73.00;;;;;;4979807;28;20035;-65
2023/11/09 11:19:22;;;;;;;1.55;0.90;;;11.40;72.40;;;;;;4979489;28;20632;-64
2023/11/09 11:22:09;;;;;;;2.13;0.90;;;11.50;73.00;;;;;;4980465;28;20104;-65
2023/11/09 11:25:06;;;;;;;1.50;0.80;;;11.50;72.40;;;;;;4979921;28;20046;-65
2023/11/09 11:27:37;;;;;;;1.00;0.80;;;11.50;71.90;;;;;;4979432;28;20459;-64
2023/11/09 11:30:13;;;;;;;1.13;0.85;;;11.50;72.60;;;;;;4980620;28;20034;-64
2023/11/09 11:32:39;;;;;;;2.08;1.00;;;11.60;72.20;;;;;;4978912;28;20089;-64
2023/11/09 11:35:06;;;;;;;0.98;0.80;;;11.60;72.50;;;;;;4979470;28;20034;-64
2023/11/09 11:37:33;;;;;;;2.42;1.02;;;11.60;72.50;;;;;;4980345;28;20127;-65
2023/11/09 11:40:00;;;;;;;1.50;0.90;;;11.60;72.30;;;;;;4978327;28;20034;-64
2023/11/09 11:42:27;;;;;;;2.05;0.63;;;11.60;72.50;;;;;;4979186;28;20039;-65
2023/11/09 11:44:59;;;;;;;1.60;0.93;;;11.60;72.30;;;;;;4978554;28;20402;-65
2023/11/09 11:47:27;;;;;;;1.42;0.75;;;11.70;72.10;;;;;;4978815;28;20050;-64
2023/11/09 11:50:00;;;;;;;1.02;0.90;;;11.70;71.90;;;;;;4979251;28;20031;-64
2023/11/09 11:52:30;;;;;;;1.95;1.10;;;11.70;71.80;;;;;;4978779;28;20522;-65
2023/11/09 11:55:00;;;;;;;1.13;0.93;;;11.80;71.90;;;;;;4979749;28;20518;-65
2023/11/09 11:57:29;;;;;;;2.97;0.90;;;11.80;72.00;;;;;;4979083;28;20027;-64
2023/11/09 12:00:08;;;;;;;1.00;0.70;;;11.80;71.90;;;;;;4978978;28;20511;-65
2023/11/09 12:02:35;;;;;;;0.95;0.60;;;11.90;71.40;;;;;;4978828;28;20031;-65
2023/11/09 12:05:02;;;;;;;1.58;1.02;;;11.90;71.80;;;;;;4978756;28;20066;-65
2023/11/09 12:07:33;;;;;;;1.70;1.00;;;12.00;71.80;;;;;;4978722;28;20034;-64
2023/11/09 12:09:58;;;;;;;1.52;0.98;;;12.00;71.60;;;;;;4978390;28;20039;-65
2023/11/09 12:12:26;;;;;;;1.02;0.88;;;12.10;71.30;;;;;;4977885;28;20094;-65
2023/11/09 12:14:53;;;;;;;3.45;0.80;;;12.10;70.30;;;;;;4979276;28;20030;-64
2023/11/09 12:17:23;;;;;;;1.00;0.70;;;12.20;70.40;;;;;;4979582;28;20056;-65
2023/11/09 12:19:49;;;;;;;3.83;0.50;;;12.20;70.20;;;;;;4979189;28;20062;-64
2023/11/09 12:22:15;;;;;;;1.08;0.60;;;12.30;71.20;;;;;;4978508;28;20537;-65
2023/11/09 12:24:40;;;;;;;1.63;0.90;;;12.30;69.90;;;;;;4977856;28;20043;-64
2023/11/09 12:27:08;;;;;;;0.75;0.63;;;12.40;69.50;;;;;;4979279;28;20058;-64
2023/11/09 12:29:43;;;;;;;2.67;0.70;;;12.40;69.30;;;;;;4979076;28;20042;-64
2023/11/09 12:32:09;;;;;;;0.80;0.50;;;12.50;68.30;;;;;;4978838;28;20525;-64
2023/11/09 12:34:40;;;;;;;1.63;0.50;;;12.50;68.90;;;;;;4977830;28;20030;-64
2023/11/09 12:37:13;;;;;;;0.57;0.30;;;12.60;68.50;;;;;;4978825;28;20594;-65
2023/11/09 12:39:40;;;;;;;0.73;0.40;;;12.60;68.80;;;;;;4978471;28;20074;-64
2023/11/09 12:42:06;;;;;;;0.47;0.30;;;12.70;68.30;;;;;;4978845;28;20038;-65
2023/11/09 12:44:35;;;;;;;2.15;0.40;;;12.70;67.80;;;;;;4978417;28;20125;-65
2023/11/09 12:47:07;;;;;;;1.73;0.50;;;12.80;67.90;;;;;;4978342;28;20038;-65
2023/11/09 12:49:33;;;;;;;1.33;0.35;;;12.80;67.70;;;;;;4979240;28;20031;-65
2023/11/09 12:52:05;;;;;;;2.47;0.60;;;12.80;67.80;;;;;;4980923;28;20042;-65
2023/11/09 12:54:33;;;;;;;0.47;0.40;;;12.90;67.60;;;;;;4981991;28;20141;-65
2023/11/09 12:57:04;;;;;;;0.65;0.40;;;12.90;67.90;;;;;;4981179;28;20522;-64
2023/11/09 12:59:31;;;;;;;1.50;0.43;;;12.90;67.50;;;;;;4982660;28;20046;-65
2023/11/09 13:02:32;;;;;;;0.68;0.38;;;13.00;67.40;;;;;;4982878;28;20038;-64
2023/11/09 13:04:46;;;;;;;0.63;0.40;;;13.00;68.00;;;;;;4980869;28;20035;-65
2023/11/09 13:07:13;;;;;;;0.70;0.40;;;13.00;68.00;;;;;;4982014;28;20038;-65
2023/11/09 13:09:41;;;;;;;2.17;0.60;;;13.10;67.60;;;;;;4981482;28;20030;-65
2023/11/09 13:15:10;;;;;;;0.60;0.40;;;13.10;67.30;;;;;;4981495;28;20045;-65
2023/11/09 13:17:52;;;;;;;1.35;0.40;;;13.10;66.70;;;;;;4981641;28;20038;-65
2023/11/09 13:20:38;;;;;;;1.20;0.73;;;13.10;66.80;;;;;;4981880;28;20046;-65
2023/11/09 13:23:08;;;;;;;2.17;1.13;;;13.10;66.70;;;;;;4981075;28;20038;-64
2023/11/09 13:25:42;;;;;;;0.60;0.35;;;13.10;66.90;;;;;;4981721;28;20068;-64
2023/11/09 13:28:15;;;;;;;1.60;0.25;;;13.10;67.70;;;;;;4982191;28;20027;-65
2023/11/09 13:30:50;;;;;;;0.68;0.55;;;13.10;66.70;;;;;;4981049;28;20034;-65
2023/11/09 13:33:34;;;;;;;0.40;0.30;;;13.00;67.30;;;;;;4981093;28;20525;-65
2023/11/09 13:36:07;;;;;;;0.30;0.20;;;13.00;67.10;;;;;;4981263;28;20072;-64
2023/11/09 13:41:22;;;;;;;3.45;0.30;;;13.00;67.60;;;;;;4981561;28;20038;-65
2023/11/09 13:44:00;;;;;;;1.52;0.40;;;12.90;67.80;;;;;;4980764;28;20089;-65
2023/11/09 13:46:27;;;;;;;2.08;0.80;;;13.00;68.10;;;;;;4979543;28;20045;-65
2023/11/09 13:51:45;;;;;;;1.15;0.70;;;12.90;68.50;;;;;;4981399;28;20049;-64
2023/11/09 13:59:43;;;;;;;1.30;0.65;;;12.80;68.90;;;;;;4981404;28;20039;-65
2023/11/09 14:02:19;;;;;;;3.83;0.52;;;12.80;69.00;;;;;;4980981;28;20125;-65
2023/11/09 14:04:47;;;;;;;1.15;0.38;;;12.90;69.10;;;;;;4980436;28;20061;-64
2023/11/09 14:07:15;;;;;;;1.42;0.35;;;12.80;68.80;;;;;;4981711;28;20395;-65
2023/11/09 14:09:42;;;;;;;0.80;0.40;;;12.80;68.80;;;;;;4980626;28;20073;-65
2023/11/09 14:12:10;;;;;;;1.25;0.50;;;12.80;68.90;;;;;;4978853;28;20557;-65
2023/11/09 14:14:45;;;;;;;0.70;0.50;;;12.80;69.20;;;;;;4980321;28;20528;-65
2023/11/09 14:17:17;;;;;;;0.88;0.20;;;12.80;69.10;;;;;;4980529;28;20063;-65
2023/11/09 14:19:50;;;;;;;0.85;0.40;;;12.80;69.00;;;;;;4981859;28;20085;-65
2023/11/09 14:22:17;;;;;;;0.22;0.20;;;12.80;69.30;;;;;;4981421;28;20045;-64
2023/11/09 14:24:43;;;;;;;0.73;0.30;;;12.80;69.30;;;;;;4979703;28;20093;-65
2023/11/09 14:27:09;;;;;;;0.88;0.20;;;12.80;69.40;;;;;;4980912;28;20113;-65
2023/11/09 14:29:34;;;;;;;0.30;0.25;;;12.80;69.50;;;;;;4980393;28;20122;-65
2023/11/09 14:32:00;;;;;;;0.40;0.20;;;12.80;69.70;;;;;;4980699;28;20533;-65
2023/11/09 14:34:27;;;;;;;0.85;0.30;;;12.70;69.50;;;;;;4979879;28;20030;-65
2023/11/09 14:36:58;;;;;;;0.35;0.32;;;12.70;69.50;;;;;;4981067;28;20058;-65
2023/11/09 14:39:43;;;;;;;0.70;0.22;;;12.80;69.70;;;;;;4980126;28;20034;-65
2023/11/09 14:42:09;;;;;;;0.10;0.10;;;12.70;69.60;;;;;;4980188;28;20047;-65
2023/11/09 14:44:38;;;;;;;0.10;0.10;;;12.70;69.60;;;;;;4980064;28;20043;-64
2023/11/09 14:47:06;;;;;;;0.60;0.38;;;12.70;69.40;;;;;;4978983;28;20042;-65
2023/11/09 14:49:35;;;;;;;1.38;0.10;;;12.60;69.70;;;;;;4979844;28;20085;-65
2023/11/09 14:52:06;;;;;;;0.10;0.10;;;12.70;69.80;;;;;;4979867;28;20039;-65
2023/11/09 14:54:40;;;;;;;0.80;0.10;;;12.60;69.30;;;;;;4979496;28;20042;-65
2023/11/09 14:57:08;;;;;;;0.40;0.10;;;12.60;69.20;;;;;;4979405;28;20500;-65
2023/11/09 14:59:33;;;;;;;0.40;0.20;;;12.60;69.30;;;;;;4980113;28;20286;-65
2023/11/09 15:01:59;;;;;;;0.63;0.25;;;12.50;69.50;;;;;;4979971;28;20421;-65
2023/11/09 15:04:28;;;;;;;0.30;0.20;;;12.50;69.30;;;;;;4979553;28;20038;-65
2023/11/09 15:06:54;;;;;;;0.50;0.30;;;12.50;69.60;;;;;;4979215;28;20030;-65
2023/11/09 15:09:24;;;;;;;0.45;0.20;;;12.40;69.70;;;;;;4961453;28;20036;-65
2023/11/09 15:11:53;;;;;;;0.20;0.17;;;12.40;70.00;;;;;;4978008;28;20812;-65
2023/11/09 15:14:19;;;;;;;0.30;0.30;;;12.30;70.40;;;;;;4979529;28;20039;-65
2023/11/09 15:16:45;;;;;;;0.55;0.22;;;12.20;70.60;;;;;;4978266;28;20041;-65
2023/11/09 15:19:12;;;;;;;0.77;0.30;;;12.20;70.80;;;;;;4980066;28;20035;-65
2023/11/09 15:21:41;;;;;;;0.50;0.30;;;12.20;71.00;;;;;;4979226;28;20041;-65
2023/11/09 15:24:10;;;;;;;0.20;0.20;;;12.20;71.30;;;;;;4979056;28;20846;-65
2023/11/09 15:26:37;;;;;;;0.70;0.45;;;12.10;71.60;;;;;;4978671;28;20039;-64
2023/11/09 15:29:03;;;;;;;1.27;1.00;;;12.00;71.90;;;;;;4979294;28;20030;-65
2023/11/09 15:31:30;;;;;;;0.60;0.60;;;12.00;72.50;;;;;;4978933;28;20503;-64
2023/11/09 15:33:55;;;;;;;0.50;0.40;;;11.90;72.60;;;;;;4979353;28;20419;-65
2023/11/09 15:36:21;;;;;;;0.70;0.60;;;11.90;73.00;;;;;;4979453;28;20121;-65
2023/11/09 15:38:49;;;;;;;1.00;0.77;;;11.80;73.20;;;;;;4978734;28;20166;-65
2023/11/09 15:41:17;;;;;;;0.75;0.63;;;11.80;73.20;;;;;;4979416;28;20121;-66
2023/11/09 15:43:43;;;;;;;0.50;0.40;;;11.80;73.50;;;;;;4979940;28;20041;-65
2023/11/09 15:46:14;;;;;;;1.13;0.40;;;11.70;73.50;;;;;;4978871;28;20034;-65
2023/11/09 15:48:41;;;;;;;0.45;0.40;;;11.70;73.50;;;;;;4978511;28;20058;-65
2023/11/09 15:51:07;;;;;;;1.02;0.47;;;11.60;73.50;;;;;;4979916;28;20054;-65
2023/11/09 15:53:33;;;;;;;0.40;0.30;;;11.60;73.70;;;;;;4980124;28;20038;-65
2023/11/09 15:55:59;;;;;;;0.57;0.50;;;11.60;73.70;;;;;;4978927;28;20042;-65
2023/11/09 15:58:25;;;;;;;0.70;0.60;;;11.60;73.80;;;;;;4979132;28;20030;-66
2023/11/09 16:00:50;;;;;;;0.50;0.40;;;11.60;73.90;;;;;;4979716;28;20038;-65